sensor_id;sensor_type;location;lat;lon;timestamp;P1;durP1;ratioP1;P2;durP2;ratioP2
59366;SDS011;45163;47.690;11.770;2023-05-27T00:00:09;7.23;;;5.63;;
59366;SDS011;45163;47.690;11.770;2023-05-27T00:02:35;10.73;;;6.30;;
59366;SDS011;45163;47.690;11.770;2023-05-27T00:05:01;10.57;;;6.37;;
59366;SDS011;45163;47.690;11.770;2023-05-27T00:07:28;11.23;;;6.83;;
59366;SDS011;45163;47.690;11.770;2023-05-27T00:09:54;8.47;;;6.43;;
59366;SDS011;45163;47.690;11.770;2023-05-27T00:12:20;7.10;;;5.80;;
59366;SDS011;45163;47.690;11.770;2023-05-27T00:14:46;8.70;;;6.30;;
59366;SDS011;45163;47.690;11.770;2023-05-27T00:17:12;10.53;;;5.80;;
59366;SDS011;45163;47.690;11.770;2023-05-27T00:19:41;7.23;;;6.30;;
59366;SDS011;45163;47.690;11.770;2023-05-27T00:22:08;7.23;;;5.70;;
59366;SDS011;45163;47.690;11.770;2023-05-27T00:24:34;6.87;;;6.10;;
59366;SDS011;45163;47.690;11.770;2023-05-27T00:27:05;11.93;;;6.10;;
59366;SDS011;45163;47.690;11.770;2023-05-27T00:29:34;12.00;;;6.17;;
59366;SDS011;45163;47.690;11.770;2023-05-27T00:32:01;8.50;;;5.87;;
59366;SDS011;45163;47.690;11.770;2023-05-27T00:34:28;8.60;;;6.20;;
59366;SDS011;45163;47.690;11.770;2023-05-27T00:36:55;7.47;;;6.13;;
59366;SDS011;45163;47.690;11.770;2023-05-27T00:39:22;9.87;;;6.70;;
59366;SDS011;45163;47.690;11.770;2023-05-27T00:41:48;7.50;;;6.10;;
59366;SDS011;45163;47.690;11.770;2023-05-27T00:44:16;10.63;;;5.80;;
59366;SDS011;45163;47.690;11.770;2023-05-27T00:46:43;7.13;;;5.70;;
59366;SDS011;45163;47.690;11.770;2023-05-27T00:49:11;8.80;;;5.73;;
59366;SDS011;45163;47.690;11.770;2023-05-27T00:51:38;8.17;;;5.43;;
59366;SDS011;45163;47.690;11.770;2023-05-27T00:54:04;8.40;;;5.97;;
59366;SDS011;45163;47.690;11.770;2023-05-27T00:56:31;7.87;;;5.77;;
59366;SDS011;45163;47.690;11.770;2023-05-27T00:58:58;9.43;;;5.97;;
59366;SDS011;45163;47.690;11.770;2023-05-27T01:01:24;10.27;;;6.17;;
59366;SDS011;45163;47.690;11.770;2023-05-27T01:03:54;10.40;;;5.60;;
59366;SDS011;45163;47.690;11.770;2023-05-27T01:06:35;8.47;;;5.53;;
59366;SDS011;45163;47.690;11.770;2023-05-27T01:09:20;12.87;;;6.30;;
59366;SDS011;45163;47.690;11.770;2023-05-27T01:14:34;7.70;;;5.53;;
59366;SDS011;45163;47.690;11.770;2023-05-27T01:17:03;7.83;;;5.63;;
59366;SDS011;45163;47.690;11.770;2023-05-27T01:19:36;6.10;;;5.37;;
59366;SDS011;45163;47.690;11.770;2023-05-27T01:22:08;8.57;;;6.20;;
59366;SDS011;45163;47.690;11.770;2023-05-27T01:24:37;9.50;;;5.57;;
59366;SDS011;45163;47.690;11.770;2023-05-27T01:27:03;10.20;;;6.07;;
59366;SDS011;45163;47.690;11.770;2023-05-27T01:29:29;11.07;;;5.70;;
59366;SDS011;45163;47.690;11.770;2023-05-27T01:37:43;7.57;;;5.70;;
59366;SDS011;45163;47.690;11.770;2023-05-27T01:40:11;8.40;;;5.90;;
59366;SDS011;45163;47.690;11.770;2023-05-27T01:42:40;9.10;;;5.40;;
59366;SDS011;45163;47.690;11.770;2023-05-27T01:45:09;9.30;;;6.30;;
59366;SDS011;45163;47.690;11.770;2023-05-27T01:47:38;9.93;;;6.00;;
59366;SDS011;45163;47.690;11.770;2023-05-27T01:50:05;14.37;;;6.20;;
59366;SDS011;45163;47.690;11.770;2023-05-27T01:52:32;10.03;;;6.63;;
59366;SDS011;45163;47.690;11.770;2023-05-27T01:54:58;8.57;;;5.80;;
59366;SDS011;45163;47.690;11.770;2023-05-27T01:57:25;10.37;;;6.10;;
59366;SDS011;45163;47.690;11.770;2023-05-27T01:59:51;10.23;;;5.93;;
59366;SDS011;45163;47.690;11.770;2023-05-27T02:02:17;9.83;;;6.30;;
59366;SDS011;45163;47.690;11.770;2023-05-27T02:04:43;7.13;;;5.60;;
59366;SDS011;45163;47.690;11.770;2023-05-27T02:07:09;18.73;;;6.50;;
59366;SDS011;45163;47.690;11.770;2023-05-27T02:09:36;9.20;;;5.73;;
59366;SDS011;45163;47.690;11.770;2023-05-27T02:12:02;8.23;;;5.70;;
59366;SDS011;45163;47.690;11.770;2023-05-27T02:14:31;12.63;;;5.50;;
59366;SDS011;45163;47.690;11.770;2023-05-27T02:16:58;8.47;;;5.70;;
59366;SDS011;45163;47.690;11.770;2023-05-27T02:19:24;8.03;;;5.47;;
59366;SDS011;45163;47.690;11.770;2023-05-27T02:21:51;6.90;;;5.40;;
59366;SDS011;45163;47.690;11.770;2023-05-27T02:24:16;7.53;;;5.63;;
59366;SDS011;45163;47.690;11.770;2023-05-27T02:26:42;10.07;;;5.20;;
59366;SDS011;45163;47.690;11.770;2023-05-27T02:29:08;9.20;;;5.90;;
59366;SDS011;45163;47.690;11.770;2023-05-27T02:31:35;6.03;;;5.43;;
59366;SDS011;45163;47.690;11.770;2023-05-27T02:34:01;18.53;;;6.37;;
59366;SDS011;45163;47.690;11.770;2023-05-27T02:36:27;10.07;;;6.27;;
59366;SDS011;45163;47.690;11.770;2023-05-27T02:38:53;7.97;;;5.77;;
59366;SDS011;45163;47.690;11.770;2023-05-27T02:41:19;9.17;;;6.30;;
59366;SDS011;45163;47.690;11.770;2023-05-27T02:43:45;7.03;;;5.60;;
59366;SDS011;45163;47.690;11.770;2023-05-27T02:46:11;8.03;;;5.87;;
59366;SDS011;45163;47.690;11.770;2023-05-27T02:48:37;7.13;;;5.63;;
59366;SDS011;45163;47.690;11.770;2023-05-27T02:51:03;8.10;;;5.50;;
59366;SDS011;45163;47.690;11.770;2023-05-27T02:53:29;7.10;;;6.07;;
59366;SDS011;45163;47.690;11.770;2023-05-27T02:55:55;6.87;;;6.03;;
59366;SDS011;45163;47.690;11.770;2023-05-27T02:58:21;7.53;;;6.00;;
59366;SDS011;45163;47.690;11.770;2023-05-27T03:00:47;8.83;;;6.63;;
59366;SDS011;45163;47.690;11.770;2023-05-27T03:03:13;13.60;;;7.73;;
59366;SDS011;45163;47.690;11.770;2023-05-27T03:05:39;9.13;;;7.07;;
59366;SDS011;45163;47.690;11.770;2023-05-27T03:08:05;8.00;;;6.30;;
59366;SDS011;45163;47.690;11.770;2023-05-27T03:10:32;9.80;;;6.47;;
59366;SDS011;45163;47.690;11.770;2023-05-27T03:12:58;12.70;;;6.50;;
59366;SDS011;45163;47.690;11.770;2023-05-27T03:15:24;11.27;;;6.30;;
59366;SDS011;45163;47.690;11.770;2023-05-27T03:17:50;9.60;;;6.50;;
59366;SDS011;45163;47.690;11.770;2023-05-27T03:20:17;8.13;;;5.87;;
59366;SDS011;45163;47.690;11.770;2023-05-27T03:22:44;6.97;;;5.97;;
59366;SDS011;45163;47.690;11.770;2023-05-27T03:25:10;7.43;;;5.83;;
59366;SDS011;45163;47.690;11.770;2023-05-27T03:27:37;7.27;;;6.23;;
59366;SDS011;45163;47.690;11.770;2023-05-27T03:30:04;7.30;;;6.07;;
59366;SDS011;45163;47.690;11.770;2023-05-27T03:32:31;8.93;;;6.03;;
59366;SDS011;45163;47.690;11.770;2023-05-27T03:34:57;11.90;;;6.37;;
59366;SDS011;45163;47.690;11.770;2023-05-27T03:37:23;9.40;;;6.50;;
59366;SDS011;45163;47.690;11.770;2023-05-27T03:39:49;16.10;;;7.13;;
59366;SDS011;45163;47.690;11.770;2023-05-27T03:42:15;13.00;;;7.37;;
59366;SDS011;45163;47.690;11.770;2023-05-27T03:44:41;9.83;;;7.17;;
59366;SDS011;45163;47.690;11.770;2023-05-27T03:47:07;9.67;;;7.10;;
59366;SDS011;45163;47.690;11.770;2023-05-27T03:49:33;9.43;;;6.70;;
59366;SDS011;45163;47.690;11.770;2023-05-27T03:51:59;9.10;;;6.80;;
59366;SDS011;45163;47.690;11.770;2023-05-27T03:54:25;10.13;;;7.67;;
59366;SDS011;45163;47.690;11.770;2023-05-27T03:56:51;9.13;;;7.03;;
59366;SDS011;45163;47.690;11.770;2023-05-27T03:59:17;11.47;;;7.17;;
59366;SDS011;45163;47.690;11.770;2023-05-27T04:01:46;10.37;;;7.37;;
59366;SDS011;45163;47.690;11.770;2023-05-27T04:04:13;9.67;;;7.43;;
59366;SDS011;45163;47.690;11.770;2023-05-27T04:06:39;8.80;;;7.00;;
59366;SDS011;45163;47.690;11.770;2023-05-27T04:09:08;9.10;;;6.63;;
59366;SDS011;45163;47.690;11.770;2023-05-27T04:11:34;11.20;;;7.03;;
59366;SDS011;45163;47.690;11.770;2023-05-27T04:14:00;10.10;;;7.20;;
59366;SDS011;45163;47.690;11.770;2023-05-27T04:16:26;10.73;;;7.53;;
59366;SDS011;45163;47.690;11.770;2023-05-27T04:18:56;9.10;;;6.77;;
59366;SDS011;45163;47.690;11.770;2023-05-27T04:21:23;10.70;;;6.63;;
59366;SDS011;45163;47.690;11.770;2023-05-27T04:23:49;11.40;;;7.20;;
59366;SDS011;45163;47.690;11.770;2023-05-27T04:26:15;8.77;;;6.67;;
59366;SDS011;45163;47.690;11.770;2023-05-27T04:28:41;10.73;;;7.07;;
59366;SDS011;45163;47.690;11.770;2023-05-27T04:31:10;9.67;;;6.70;;
59366;SDS011;45163;47.690;11.770;2023-05-27T04:33:38;10.73;;;6.37;;
59366;SDS011;45163;47.690;11.770;2023-05-27T04:36:06;8.70;;;6.70;;
59366;SDS011;45163;47.690;11.770;2023-05-27T04:38:32;10.73;;;6.60;;
59366;SDS011;45163;47.690;11.770;2023-05-27T04:40:58;11.33;;;6.73;;
59366;SDS011;45163;47.690;11.770;2023-05-27T04:43:26;7.60;;;6.37;;
59366;SDS011;45163;47.690;11.770;2023-05-27T04:45:52;8.47;;;6.47;;
59366;SDS011;45163;47.690;11.770;2023-05-27T04:48:19;9.10;;;6.40;;
59366;SDS011;45163;47.690;11.770;2023-05-27T04:50:48;9.67;;;6.30;;
59366;SDS011;45163;47.690;11.770;2023-05-27T04:53:14;7.00;;;6.13;;
59366;SDS011;45163;47.690;11.770;2023-05-27T04:55:41;7.17;;;5.50;;
59366;SDS011;45163;47.690;11.770;2023-05-27T04:58:07;6.80;;;5.63;;
59366;SDS011;45163;47.690;11.770;2023-05-27T05:00:33;9.93;;;6.00;;
59366;SDS011;45163;47.690;11.770;2023-05-27T05:03:04;9.87;;;6.10;;
59366;SDS011;45163;47.690;11.770;2023-05-27T05:05:32;7.03;;;5.10;;
59366;SDS011;45163;47.690;11.770;2023-05-27T05:07:58;13.90;;;5.63;;
59366;SDS011;45163;47.690;11.770;2023-05-27T05:10:24;8.50;;;5.63;;
59366;SDS011;45163;47.690;11.770;2023-05-27T05:12:52;8.40;;;5.67;;
59366;SDS011;45163;47.690;11.770;2023-05-27T05:15:18;9.60;;;5.50;;
59366;SDS011;45163;47.690;11.770;2023-05-27T05:17:44;12.50;;;6.40;;
59366;SDS011;45163;47.690;11.770;2023-05-27T05:20:10;9.10;;;6.67;;
59366;SDS011;45163;47.690;11.770;2023-05-27T05:22:37;8.23;;;5.80;;
59366;SDS011;45163;47.690;11.770;2023-05-27T05:25:03;9.77;;;5.70;;
59366;SDS011;45163;47.690;11.770;2023-05-27T05:27:30;7.50;;;5.40;;
59366;SDS011;45163;47.690;11.770;2023-05-27T05:29:56;9.80;;;5.70;;
59366;SDS011;45163;47.690;11.770;2023-05-27T05:32:22;9.37;;;5.17;;
59366;SDS011;45163;47.690;11.770;2023-05-27T05:34:48;11.43;;;5.67;;
59366;SDS011;45163;47.690;11.770;2023-05-27T05:37:13;10.40;;;5.20;;
59366;SDS011;45163;47.690;11.770;2023-05-27T05:39:41;8.53;;;5.30;;
59366;SDS011;45163;47.690;11.770;2023-05-27T05:42:10;8.50;;;5.90;;
59366;SDS011;45163;47.690;11.770;2023-05-27T05:44:36;11.70;;;5.60;;
59366;SDS011;45163;47.690;11.770;2023-05-27T05:47:02;6.60;;;5.70;;
59366;SDS011;45163;47.690;11.770;2023-05-27T05:49:28;8.40;;;5.17;;
59366;SDS011;45163;47.690;11.770;2023-05-27T05:51:54;7.40;;;5.63;;
59366;SDS011;45163;47.690;11.770;2023-05-27T05:54:20;10.07;;;6.00;;
59366;SDS011;45163;47.690;11.770;2023-05-27T05:56:46;7.00;;;4.97;;
59366;SDS011;45163;47.690;11.770;2023-05-27T05:59:12;7.80;;;5.70;;
59366;SDS011;45163;47.690;11.770;2023-05-27T06:01:38;6.77;;;5.23;;
59366;SDS011;45163;47.690;11.770;2023-05-27T06:04:04;5.83;;;4.77;;
59366;SDS011;45163;47.690;11.770;2023-05-27T06:06:32;6.80;;;5.30;;
59366;SDS011;45163;47.690;11.770;2023-05-27T06:08:57;9.00;;;5.73;;
59366;SDS011;45163;47.690;11.770;2023-05-27T06:11:23;6.87;;;5.10;;
59366;SDS011;45163;47.690;11.770;2023-05-27T06:13:51;10.03;;;5.13;;
59366;SDS011;45163;47.690;11.770;2023-05-27T06:16:17;6.63;;;5.00;;
59366;SDS011;45163;47.690;11.770;2023-05-27T06:18:43;9.03;;;5.20;;
59366;SDS011;45163;47.690;11.770;2023-05-27T06:21:11;8.57;;;5.40;;
59366;SDS011;45163;47.690;11.770;2023-05-27T06:23:38;9.83;;;5.33;;
59366;SDS011;45163;47.690;11.770;2023-05-27T06:26:04;6.73;;;5.27;;
59366;SDS011;45163;47.690;11.770;2023-05-27T06:28:29;8.73;;;5.80;;
59366;SDS011;45163;47.690;11.770;2023-05-27T06:30:55;7.57;;;5.60;;
59366;SDS011;45163;47.690;11.770;2023-05-27T06:33:21;8.33;;;5.83;;
59366;SDS011;45163;47.690;11.770;2023-05-27T06:35:47;6.50;;;5.50;;
59366;SDS011;45163;47.690;11.770;2023-05-27T06:38:13;8.10;;;5.90;;
59366;SDS011;45163;47.690;11.770;2023-05-27T06:40:40;7.33;;;5.73;;
59366;SDS011;45163;47.690;11.770;2023-05-27T06:43:06;13.93;;;5.80;;
59366;SDS011;45163;47.690;11.770;2023-05-27T06:45:32;12.30;;;5.67;;
59366;SDS011;45163;47.690;11.770;2023-05-27T06:47:58;7.53;;;5.40;;
59366;SDS011;45163;47.690;11.770;2023-05-27T06:50:24;8.47;;;5.40;;
59366;SDS011;45163;47.690;11.770;2023-05-27T06:52:50;9.70;;;5.80;;
59366;SDS011;45163;47.690;11.770;2023-05-27T06:55:17;8.13;;;5.80;;
59366;SDS011;45163;47.690;11.770;2023-05-27T06:57:43;10.67;;;5.77;;
59366;SDS011;45163;47.690;11.770;2023-05-27T07:00:10;12.07;;;5.23;;
59366;SDS011;45163;47.690;11.770;2023-05-27T07:02:36;7.93;;;6.40;;
59366;SDS011;45163;47.690;11.770;2023-05-27T07:05:02;9.30;;;7.00;;
59366;SDS011;45163;47.690;11.770;2023-05-27T07:07:28;8.43;;;6.07;;
59366;SDS011;45163;47.690;11.770;2023-05-27T07:09:54;9.43;;;6.50;;
59366;SDS011;45163;47.690;11.770;2023-05-27T07:12:20;10.33;;;6.93;;
59366;SDS011;45163;47.690;11.770;2023-05-27T07:14:46;9.30;;;6.20;;
59366;SDS011;45163;47.690;11.770;2023-05-27T07:17:12;9.33;;;6.63;;
59366;SDS011;45163;47.690;11.770;2023-05-27T07:19:38;10.13;;;6.90;;
59366;SDS011;45163;47.690;11.770;2023-05-27T07:22:04;10.63;;;6.60;;
59366;SDS011;45163;47.690;11.770;2023-05-27T07:24:30;9.80;;;6.30;;
59366;SDS011;45163;47.690;11.770;2023-05-27T07:26:57;8.70;;;6.10;;
59366;SDS011;45163;47.690;11.770;2023-05-27T07:29:23;12.63;;;7.05;;
59366;SDS011;45163;47.690;11.770;2023-05-27T07:31:49;9.13;;;6.68;;
59366;SDS011;45163;47.690;11.770;2023-05-27T07:34:15;9.23;;;6.10;;
59366;SDS011;45163;47.690;11.770;2023-05-27T07:36:41;10.48;;;6.78;;
59366;SDS011;45163;47.690;11.770;2023-05-27T07:39:07;13.25;;;6.53;;
59366;SDS011;45163;47.690;11.770;2023-05-27T07:41:33;9.63;;;6.35;;
59366;SDS011;45163;47.690;11.770;2023-05-27T07:43:59;8.25;;;6.25;;
59366;SDS011;45163;47.690;11.770;2023-05-27T07:46:25;11.10;;;7.18;;
59366;SDS011;45163;47.690;11.770;2023-05-27T07:48:51;9.15;;;6.32;;
59366;SDS011;45163;47.690;11.770;2023-05-27T07:51:17;9.15;;;6.40;;
59366;SDS011;45163;47.690;11.770;2023-05-27T07:53:43;12.73;;;6.68;;
59366;SDS011;45163;47.690;11.770;2023-05-27T07:56:09;9.80;;;6.47;;
59366;SDS011;45163;47.690;11.770;2023-05-27T07:58:35;10.98;;;6.47;;
59366;SDS011;45163;47.690;11.770;2023-05-27T08:01:01;11.13;;;7.03;;
59366;SDS011;45163;47.690;11.770;2023-05-27T08:03:27;8.77;;;6.47;;
59366;SDS011;45163;47.690;11.770;2023-05-27T08:05:53;8.95;;;6.35;;
59366;SDS011;45163;47.690;11.770;2023-05-27T08:08:19;10.13;;;6.45;;
59366;SDS011;45163;47.690;11.770;2023-05-27T08:10:45;8.60;;;6.20;;
59366;SDS011;45163;47.690;11.770;2023-05-27T08:13:12;9.02;;;6.32;;
59366;SDS011;45163;47.690;11.770;2023-05-27T08:15:38;12.38;;;6.47;;
59366;SDS011;45163;47.690;11.770;2023-05-27T08:18:04;9.73;;;6.32;;
59366;SDS011;45163;47.690;11.770;2023-05-27T08:20:33;13.77;;;6.90;;
59366;SDS011;45163;47.690;11.770;2023-05-27T08:22:59;7.50;;;6.20;;
59366;SDS011;45163;47.690;11.770;2023-05-27T08:25:25;8.38;;;5.57;;
59366;SDS011;45163;47.690;11.770;2023-05-27T08:27:53;7.97;;;5.68;;
59366;SDS011;45163;47.690;11.770;2023-05-27T08:30:22;7.88;;;5.88;;
59366;SDS011;45163;47.690;11.770;2023-05-27T08:32:48;9.80;;;5.85;;
59366;SDS011;45163;47.690;11.770;2023-05-27T08:35:14;9.05;;;6.15;;
59366;SDS011;45163;47.690;11.770;2023-05-27T08:37:42;8.68;;;5.50;;
59366;SDS011;45163;47.690;11.770;2023-05-27T08:40:13;9.18;;;5.20;;
59366;SDS011;45163;47.690;11.770;2023-05-27T08:42:40;8.23;;;5.70;;
59366;SDS011;45163;47.690;11.770;2023-05-27T08:45:07;11.95;;;6.00;;
59366;SDS011;45163;47.690;11.770;2023-05-27T08:47:35;9.85;;;5.63;;
59366;SDS011;45163;47.690;11.770;2023-05-27T08:50:03;8.15;;;5.40;;
59366;SDS011;45163;47.690;11.770;2023-05-27T08:52:29;11.80;;;5.55;;
59366;SDS011;45163;47.690;11.770;2023-05-27T08:54:56;8.13;;;5.55;;
59366;SDS011;45163;47.690;11.770;2023-05-27T08:57:27;7.30;;;5.60;;
59366;SDS011;45163;47.690;11.770;2023-05-27T08:59:54;8.75;;;5.32;;
59366;SDS011;45163;47.690;11.770;2023-05-27T09:02:21;11.20;;;5.75;;
59366;SDS011;45163;47.690;11.770;2023-05-27T09:04:47;8.82;;;5.38;;
59366;SDS011;45163;47.690;11.770;2023-05-27T09:07:14;9.68;;;5.25;;
59366;SDS011;45163;47.690;11.770;2023-05-27T09:09:53;8.60;;;5.43;;
59366;SDS011;45163;47.690;11.770;2023-05-27T09:12:23;9.50;;;5.63;;
59366;SDS011;45163;47.690;11.770;2023-05-27T09:14:51;7.03;;;5.20;;
59366;SDS011;45163;47.690;11.770;2023-05-27T09:17:17;7.70;;;5.47;;
59366;SDS011;45163;47.690;11.770;2023-05-27T09:19:46;6.35;;;5.05;;
59366;SDS011;45163;47.690;11.770;2023-05-27T09:22:24;10.38;;;6.65;;
59366;SDS011;45163;47.690;11.770;2023-05-27T09:24:53;9.02;;;7.53;;
59366;SDS011;45163;47.690;11.770;2023-05-27T09:27:24;9.93;;;5.90;;
59366;SDS011;45163;47.690;11.770;2023-05-27T09:29:54;11.32;;;5.93;;
59366;SDS011;45163;47.690;11.770;2023-05-27T09:32:32;7.50;;;5.32;;
59366;SDS011;45163;47.690;11.770;2023-05-27T09:34:59;8.45;;;5.30;;
59366;SDS011;45163;47.690;11.770;2023-05-27T09:37:26;7.00;;;5.00;;
59366;SDS011;45163;47.690;11.770;2023-05-27T09:39:58;9.73;;;5.55;;
59366;SDS011;45163;47.690;11.770;2023-05-27T09:42:45;10.05;;;5.43;;
59366;SDS011;45163;47.690;11.770;2023-05-27T09:47:43;7.65;;;5.90;;
59366;SDS011;45163;47.690;11.770;2023-05-27T09:50:18;8.52;;;5.53;;
59366;SDS011;45163;47.690;11.770;2023-05-27T09:52:46;9.35;;;5.47;;
59366;SDS011;45163;47.690;11.770;2023-05-27T09:55:13;12.18;;;5.45;;
59366;SDS011;45163;47.690;11.770;2023-05-27T09:57:42;6.80;;;5.07;;
59366;SDS011;45163;47.690;11.770;2023-05-27T10:00:10;8.07;;;5.38;;
59366;SDS011;45163;47.690;11.770;2023-05-27T10:02:40;9.63;;;6.05;;
59366;SDS011;45163;47.690;11.770;2023-05-27T10:05:08;11.60;;;6.03;;
59366;SDS011;45163;47.690;11.770;2023-05-27T10:07:36;7.82;;;5.13;;
59366;SDS011;45163;47.690;11.770;2023-05-27T10:10:05;8.20;;;5.80;;
59366;SDS011;45163;47.690;11.770;2023-05-27T10:12:33;7.68;;;5.30;;
59366;SDS011;45163;47.690;11.770;2023-05-27T10:14:59;7.72;;;5.25;;
59366;SDS011;45163;47.690;11.770;2023-05-27T10:17:26;12.52;;;7.13;;
59366;SDS011;45163;47.690;11.770;2023-05-27T10:19:58;8.52;;;5.30;;
59366;SDS011;45163;47.690;11.770;2023-05-27T10:22:24;7.80;;;5.70;;
59366;SDS011;45163;47.690;11.770;2023-05-27T10:24:50;8.40;;;5.70;;
59366;SDS011;45163;47.690;11.770;2023-05-27T10:27:18;8.05;;;5.45;;
59366;SDS011;45163;47.690;11.770;2023-05-27T10:29:45;9.82;;;5.72;;
59366;SDS011;45163;47.690;11.770;2023-05-27T10:32:22;12.82;;;6.50;;
59366;SDS011;45163;47.690;11.770;2023-05-27T10:34:48;11.02;;;5.82;;
59366;SDS011;45163;47.690;11.770;2023-05-27T10:37:20;7.25;;;4.93;;
59366;SDS011;45163;47.690;11.770;2023-05-27T10:39:54;7.90;;;5.70;;
59366;SDS011;45163;47.690;11.770;2023-05-27T10:42:21;9.85;;;5.85;;
59366;SDS011;45163;47.690;11.770;2023-05-27T10:45:02;10.05;;;5.45;;
59366;SDS011;45163;47.690;11.770;2023-05-27T10:47:36;8.57;;;5.40;;
59366;SDS011;45163;47.690;11.770;2023-05-27T10:50:12;9.35;;;5.47;;
59366;SDS011;45163;47.690;11.770;2023-05-27T10:52:39;11.60;;;5.63;;
59366;SDS011;45163;47.690;11.770;2023-05-27T10:55:06;8.60;;;5.70;;
59366;SDS011;45163;47.690;11.770;2023-05-27T10:57:33;12.18;;;5.78;;
59366;SDS011;45163;47.690;11.770;2023-05-27T11:00:04;10.30;;;5.32;;
59366;SDS011;45163;47.690;11.770;2023-05-27T11:02:38;11.32;;;5.43;;
59366;SDS011;45163;47.690;11.770;2023-05-27T11:05:13;7.63;;;5.43;;
59366;SDS011;45163;47.690;11.770;2023-05-27T11:07:40;8.95;;;5.60;;
59366;SDS011;45163;47.690;11.770;2023-05-27T11:10:07;11.48;;;5.57;;
59366;SDS011;45163;47.690;11.770;2023-05-27T11:12:34;9.52;;;5.22;;
59366;SDS011;45163;47.690;11.770;2023-05-27T11:15:00;8.90;;;5.82;;
59366;SDS011;45163;47.690;11.770;2023-05-27T11:17:30;10.95;;;6.28;;
59366;SDS011;45163;47.690;11.770;2023-05-27T11:19:56;7.28;;;5.40;;
59366;SDS011;45163;47.690;11.770;2023-05-27T11:22:22;10.02;;;5.45;;
59366;SDS011;45163;47.690;11.770;2023-05-27T11:27:49;8.98;;;5.88;;
59366;SDS011;45163;47.690;11.770;2023-05-27T11:30:15;9.07;;;5.30;;
59366;SDS011;45163;47.690;11.770;2023-05-27T11:32:42;7.82;;;5.43;;
59366;SDS011;45163;47.690;11.770;2023-05-27T11:35:15;11.15;;;5.88;;
59366;SDS011;45163;47.690;11.770;2023-05-27T11:37:46;7.25;;;5.22;;
59366;SDS011;45163;47.690;11.770;2023-05-27T11:40:16;8.48;;;5.60;;
59366;SDS011;45163;47.690;11.770;2023-05-27T11:42:45;10.68;;;5.10;;
59366;SDS011;45163;47.690;11.770;2023-05-27T11:45:15;7.25;;;5.40;;
59366;SDS011;45163;47.690;11.770;2023-05-27T11:47:43;13.07;;;5.88;;
59366;SDS011;45163;47.690;11.770;2023-05-27T11:50:14;7.13;;;5.28;;
59366;SDS011;45163;47.690;11.770;2023-05-27T11:52:56;7.38;;;5.70;;
59366;SDS011;45163;47.690;11.770;2023-05-27T11:55:29;6.88;;;5.32;;
59366;SDS011;45163;47.690;11.770;2023-05-27T11:57:55;8.02;;;5.47;;
59366;SDS011;45163;47.690;11.770;2023-05-27T12:00:22;9.30;;;5.53;;
59366;SDS011;45163;47.690;11.770;2023-05-27T12:02:48;8.93;;;6.47;;
59366;SDS011;45163;47.690;11.770;2023-05-27T12:05:14;9.75;;;5.90;;
59366;SDS011;45163;47.690;11.770;2023-05-27T12:07:41;11.07;;;5.80;;
59366;SDS011;45163;47.690;11.770;2023-05-27T12:10:07;8.27;;;5.40;;
59366;SDS011;45163;47.690;11.770;2023-05-27T12:12:34;9.32;;;5.68;;
59366;SDS011;45163;47.690;11.770;2023-05-27T12:15:03;7.90;;;5.25;;
59366;SDS011;45163;47.690;11.770;2023-05-27T12:17:29;9.98;;;5.22;;
59366;SDS011;45163;47.690;11.770;2023-05-27T12:19:55;9.93;;;5.50;;
59366;SDS011;45163;47.690;11.770;2023-05-27T12:22:21;8.38;;;4.82;;
59366;SDS011;45163;47.690;11.770;2023-05-27T12:24:49;12.40;;;5.82;;
59366;SDS011;45163;47.690;11.770;2023-05-27T12:27:18;12.88;;;5.38;;
59366;SDS011;45163;47.690;11.770;2023-05-27T12:29:45;8.48;;;5.20;;
59366;SDS011;45163;47.690;11.770;2023-05-27T12:32:12;9.50;;;4.80;;
59366;SDS011;45163;47.690;11.770;2023-05-27T12:34:38;5.88;;;4.75;;
59366;SDS011;45163;47.690;11.770;2023-05-27T12:37:04;11.00;;;5.00;;
59366;SDS011;45163;47.690;11.770;2023-05-27T12:39:30;10.80;;;5.13;;
59366;SDS011;45163;47.690;11.770;2023-05-27T12:41:56;9.15;;;5.05;;
59366;SDS011;45163;47.690;11.770;2023-05-27T12:44:22;9.40;;;5.10;;
59366;SDS011;45163;47.690;11.770;2023-05-27T12:46:48;6.35;;;4.78;;
59366;SDS011;45163;47.690;11.770;2023-05-27T12:49:14;12.52;;;4.38;;
59366;SDS011;45163;47.690;11.770;2023-05-27T12:51:40;8.18;;;5.10;;
59366;SDS011;45163;47.690;11.770;2023-05-27T12:54:06;7.15;;;4.70;;
59366;SDS011;45163;47.690;11.770;2023-05-27T12:56:32;8.23;;;5.15;;
59366;SDS011;45163;47.690;11.770;2023-05-27T12:58:58;7.78;;;5.28;;
59366;SDS011;45163;47.690;11.770;2023-05-27T13:01:24;7.40;;;4.60;;
59366;SDS011;45163;47.690;11.770;2023-05-27T13:03:50;9.93;;;5.47;;
59366;SDS011;45163;47.690;11.770;2023-05-27T13:06:16;6.85;;;4.63;;
59366;SDS011;45163;47.690;11.770;2023-05-27T13:08:43;8.25;;;4.60;;
59366;SDS011;45163;47.690;11.770;2023-05-27T13:11:09;7.05;;;4.15;;
59366;SDS011;45163;47.690;11.770;2023-05-27T13:13:35;6.93;;;4.50;;
59366;SDS011;45163;47.690;11.770;2023-05-27T13:16:01;9.63;;;5.13;;
59366;SDS011;45163;47.690;11.770;2023-05-27T13:18:27;7.38;;;4.50;;
59366;SDS011;45163;47.690;11.770;2023-05-27T13:20:53;10.88;;;5.47;;
59366;SDS011;45163;47.690;11.770;2023-05-27T13:23:19;7.75;;;5.18;;
59366;SDS011;45163;47.690;11.770;2023-05-27T13:25:46;8.30;;;4.93;;
59366;SDS011;45163;47.690;11.770;2023-05-27T13:28:11;10.52;;;4.63;;
59366;SDS011;45163;47.690;11.770;2023-05-27T13:30:37;9.07;;;4.70;;
59366;SDS011;45163;47.690;11.770;2023-05-27T13:33:03;6.88;;;4.80;;
59366;SDS011;45163;47.690;11.770;2023-05-27T13:35:30;6.57;;;4.70;;
59366;SDS011;45163;47.690;11.770;2023-05-27T13:37:56;6.88;;;4.50;;
59366;SDS011;45163;47.690;11.770;2023-05-27T13:40:25;6.97;;;4.38;;
59366;SDS011;45163;47.690;11.770;2023-05-27T13:42:51;7.68;;;4.80;;
59366;SDS011;45163;47.690;11.770;2023-05-27T13:45:17;6.43;;;4.90;;
59366;SDS011;45163;47.690;11.770;2023-05-27T13:47:43;8.00;;;5.00;;
59366;SDS011;45163;47.690;11.770;2023-05-27T13:50:10;8.77;;;4.85;;
59366;SDS011;45163;47.690;11.770;2023-05-27T13:52:36;6.32;;;4.70;;
59366;SDS011;45163;47.690;11.770;2023-05-27T13:55:02;10.18;;;4.78;;
59366;SDS011;45163;47.690;11.770;2023-05-27T13:57:29;9.50;;;4.72;;
59366;SDS011;45163;47.690;11.770;2023-05-27T13:59:55;10.10;;;5.32;;
59366;SDS011;45163;47.690;11.770;2023-05-27T14:02:21;5.47;;;4.30;;
59366;SDS011;45163;47.690;11.770;2023-05-27T14:04:47;9.27;;;4.68;;
59366;SDS011;45163;47.690;11.770;2023-05-27T14:07:13;7.57;;;4.53;;
59366;SDS011;45163;47.690;11.770;2023-05-27T14:09:39;10.75;;;4.78;;
59366;SDS011;45163;47.690;11.770;2023-05-27T14:12:05;6.13;;;4.13;;
59366;SDS011;45163;47.690;11.770;2023-05-27T14:14:32;6.70;;;4.68;;
59366;SDS011;45163;47.690;11.770;2023-05-27T14:16:58;9.65;;;4.43;;
59366;SDS011;45163;47.690;11.770;2023-05-27T14:19:24;6.32;;;4.72;;
59366;SDS011;45163;47.690;11.770;2023-05-27T14:21:50;22.45;;;5.38;;
59366;SDS011;45163;47.690;11.770;2023-05-27T14:24:16;10.00;;;5.28;;
59366;SDS011;45163;47.690;11.770;2023-05-27T14:26:42;7.10;;;4.43;;
59366;SDS011;45163;47.690;11.770;2023-05-27T14:29:09;7.35;;;4.90;;
59366;SDS011;45163;47.690;11.770;2023-05-27T14:31:35;6.63;;;4.35;;
59366;SDS011;45163;47.690;11.770;2023-05-27T14:34:01;7.68;;;4.43;;
59366;SDS011;45163;47.690;11.770;2023-05-27T14:36:27;9.63;;;4.78;;
59366;SDS011;45163;47.690;11.770;2023-05-27T14:38:53;6.05;;;4.32;;
59366;SDS011;45163;47.690;11.770;2023-05-27T14:41:19;9.73;;;4.47;;
59366;SDS011;45163;47.690;11.770;2023-05-27T14:43:45;6.68;;;4.50;;